createdAt,value
2022-09-14T00:01:31.483Z,19.50
2022-09-14T00:04:02.482Z,21.90
2022-09-14T00:06:30.653Z,19.60
2022-09-14T00:09:00.944Z,19.70
2022-09-14T00:11:31.389Z,20.20
2022-09-14T00:14:00.211Z,19.70
2022-09-14T00:16:31.805Z,19.50
2022-09-14T00:19:05.525Z,20.90
2022-09-14T00:21:35.981Z,19.70
2022-09-14T00:24:04.188Z,19.50
2022-09-14T00:26:31.306Z,19.70
2022-09-14T00:29:04.198Z,19.60
2022-09-14T00:31:34.696Z,19.50
2022-09-14T00:34:03.088Z,19.50
2022-09-14T00:36:31.474Z,19.40
2022-09-14T00:39:00.666Z,19.40
2022-09-14T00:41:32.626Z,19.60
2022-09-14T00:44:08.201Z,19.80
2022-09-14T00:46:45.006Z,19.70
2022-09-14T00:49:40.846Z,19.60
2022-09-14T00:52:18.217Z,19.50
2022-09-14T00:55:10.909Z,19.60
2022-09-14T00:57:44.677Z,19.60
2022-09-14T01:00:16.978Z,19.60
2022-09-14T01:02:44.340Z,19.50
2022-09-14T01:05:12.735Z,19.80
2022-09-14T01:07:56.443Z,19.70
2022-09-14T01:10:34.592Z,19.70
2022-09-14T01:13:24.121Z,19.70
2022-09-14T01:16:15.426Z,19.60
2022-09-14T01:18:51.122Z,19.40
2022-09-14T01:21:35.034Z,19.50
2022-09-14T01:25:06.523Z,19.50
2022-09-14T01:27:41.696Z,19.90
2022-09-14T01:30:22.606Z,19.70
2022-09-14T01:33:10.910Z,19.60
2022-09-14T01:35:52.022Z,19.60
2022-09-14T01:38:38.097Z,19.50
2022-09-14T01:41:10.308Z,19.70
2022-09-14T01:43:42.896Z,19.60
2022-09-14T01:46:29.818Z,19.60
2022-09-14T01:49:10.174Z,20.00
2022-09-14T01:51:47.176Z,19.30
2022-09-14T01:54:24.023Z,19.20
2022-09-14T01:57:25.558Z,18.10
2022-09-14T01:59:57.429Z,18.00
2022-09-14T02:02:50.087Z,18.20
2022-09-14T02:05:27.914Z,17.80
2022-09-14T02:07:56.092Z,17.90
2022-09-14T02:10:24.457Z,18.20
2022-09-14T02:12:53.621Z,18.20
2022-09-14T02:15:21.200Z,18.50
2022-09-14T02:17:49.135Z,18.30
2022-09-14T02:20:28.919Z,18.40
2022-09-14T02:22:56.102Z,18.50
2022-09-14T02:25:23.111Z,18.80
2022-09-14T02:27:50.369Z,18.70
2022-09-14T02:30:17.795Z,18.70
2022-09-14T02:33:12.233Z,18.50
2022-09-14T02:35:54.251Z,18.80
2022-09-14T02:38:58.753Z,18.70
2022-09-14T02:42:04.724Z,18.70
2022-09-14T02:44:43.553Z,18.80
2022-09-14T02:47:39.061Z,18.60
2022-09-14T02:50:25.549Z,18.60
2022-09-14T02:53:13.079Z,18.50
2022-09-14T02:55:46.818Z,18.60
2022-09-14T02:58:14.808Z,18.60
2022-09-14T03:00:45.775Z,18.70
2022-09-14T03:03:15.690Z,18.70
2022-09-14T03:05:43.205Z,18.90
2022-09-14T03:08:11.638Z,18.70
2022-09-14T03:10:42.190Z,18.80
2022-09-14T03:13:09.164Z,18.50
2022-09-14T03:15:36.118Z,18.80
2022-09-14T03:18:03.003Z,18.60
2022-09-14T03:20:33.209Z,18.60
2022-09-14T03:23:01.132Z,18.70
2022-09-14T03:25:28.699Z,18.70
2022-09-14T03:28:00.078Z,18.70
2022-09-14T03:30:27.903Z,18.70
2022-09-14T03:32:55.079Z,18.80
2022-09-14T03:35:22.091Z,18.60
2022-09-14T03:37:49.071Z,18.30
2022-09-14T03:40:21.698Z,18.60
2022-09-14T03:42:50.721Z,18.60
2022-09-14T03:45:19.362Z,18.50
2022-09-14T03:47:47.192Z,18.70
2022-09-14T03:50:15.477Z,18.50
2022-09-14T03:52:42.504Z,18.70
2022-09-14T03:55:10.749Z,18.70
2022-09-14T03:57:37.655Z,18.50
2022-09-14T04:00:06.424Z,18.50
2022-09-14T04:02:39.078Z,18.60
2022-09-14T04:05:07.042Z,18.50
2022-09-14T04:07:34.095Z,18.50
2022-09-14T04:10:00.964Z,18.70
2022-09-14T04:12:27.922Z,18.30
2022-09-14T04:14:54.818Z,18.40
2022-09-14T04:17:25.178Z,18.60
2022-09-14T04:19:52.138Z,18.50
2022-09-14T04:22:19.044Z,18.50
2022-09-14T04:24:45.961Z,18.60
2022-09-14T04:27:12.853Z,18.50
2022-09-14T04:29:39.919Z,18.40
2022-09-14T04:32:07.140Z,18.40
2022-09-14T04:34:34.019Z,18.50
2022-09-14T04:37:01.096Z,18.60
2022-09-14T04:39:28.494Z,18.50
2022-09-14T04:41:55.341Z,18.40
2022-09-14T04:44:22.223Z,18.50
2022-09-14T04:46:49.138Z,18.50
2022-09-14T04:49:18.626Z,18.50
2022-09-14T04:51:45.848Z,17.10
2022-09-14T04:54:15.911Z,18.50
2022-09-14T04:56:43.526Z,18.40
2022-09-14T04:59:10.826Z,18.40
2022-09-14T05:01:43.873Z,18.40
2022-09-14T05:04:12.352Z,18.40
2022-09-14T05:06:41.375Z,18.50
2022-09-14T05:09:14.067Z,18.40
2022-09-14T05:11:42.082Z,18.40
2022-09-14T05:14:13.059Z,18.30
2022-09-14T05:16:41.823Z,18.40
2022-09-14T05:19:14.387Z,18.30
2022-09-14T05:21:41.718Z,18.30
2022-09-14T05:24:14.742Z,18.10
2022-09-14T05:26:43.441Z,18.00
2022-09-14T05:29:14.090Z,18.20
2022-09-14T05:31:41.127Z,18.40
2022-09-14T05:34:10.205Z,18.20
2022-09-14T05:36:38.365Z,18.40
2022-09-14T05:39:06.981Z,16.80
2022-09-14T05:41:33.936Z,18.50
2022-09-14T05:44:00.823Z,18.20
2022-09-14T05:46:27.808Z,20.10
2022-09-14T05:48:54.742Z,18.10
2022-09-14T05:51:24.819Z,18.20
2022-09-14T05:53:54.471Z,18.30
2022-09-14T05:56:23.415Z,18.30
2022-09-14T05:58:51.016Z,18.20
2022-09-14T06:01:25.164Z,18.00
2022-09-14T06:03:58.019Z,18.30
2022-09-14T06:06:25.012Z,18.10
2022-09-14T06:08:55.002Z,18.30
2022-09-14T06:11:25.342Z,17.60
2022-09-14T06:13:54.239Z,18.30
2022-09-14T06:16:23.592Z,18.30
2022-09-14T06:18:51.059Z,18.10
2022-09-14T06:21:20.204Z,18.10
2022-09-14T06:23:48.943Z,18.50
2022-09-14T06:26:16.830Z,17.70
2022-09-14T06:28:44.221Z,18.00
2022-09-14T06:31:15.425Z,18.30
2022-09-14T06:33:47.268Z,18.00
2022-09-14T06:36:20.675Z,18.50
2022-09-14T06:38:51.631Z,18.30
2022-09-14T06:41:22.730Z,18.30
2022-09-14T06:43:50.478Z,18.50
2022-09-14T06:46:21.626Z,17.80
2022-09-14T06:48:58.782Z,18.50
2022-09-14T06:51:36.271Z,18.40
2022-09-14T06:54:04.058Z,18.20
2022-09-14T06:56:37.796Z,19.30
2022-09-14T06:59:06.975Z,18.30
2022-09-14T07:01:34.606Z,18.80
2022-09-14T07:04:01.790Z,18.60
2022-09-14T07:06:33.277Z,18.60
2022-09-14T07:09:04.902Z,18.30
2022-09-14T07:11:32.294Z,18.60
2022-09-14T07:13:59.495Z,18.70
2022-09-14T07:16:28.477Z,19.30
2022-09-14T07:18:57.179Z,18.50
2022-09-14T07:21:24.639Z,18.50
2022-09-14T07:23:52.293Z,18.80
2022-09-14T07:26:32.372Z,18.90
2022-09-14T07:29:03.820Z,19.00
2022-09-14T07:31:40.943Z,18.80
2022-09-14T07:34:08.712Z,19.00
2022-09-14T07:36:36.763Z,19.40
2022-09-14T07:39:10.125Z,19.20
2022-09-14T07:41:37.398Z,19.50
2022-09-14T07:44:07.540Z,19.40
2022-09-14T07:46:42.291Z,19.30
2022-09-14T07:49:10.689Z,19.40
2022-09-14T07:51:38.526Z,19.40
2022-09-14T07:54:08.021Z,19.50
2022-09-14T07:56:35.291Z,19.30
2022-09-14T07:59:24.191Z,19.40
2022-09-14T08:01:50.341Z,19.80
2022-09-14T08:04:17.728Z,19.20
2022-09-14T08:06:45.307Z,19.80
2022-09-14T08:09:12.303Z,19.10
2022-09-14T08:11:39.352Z,18.60
2022-09-14T08:14:10.505Z,20.00
2022-09-14T08:16:41.457Z,19.70
2022-09-14T08:19:16.987Z,19.90
2022-09-14T08:21:47.222Z,19.90
2022-09-14T08:24:18.692Z,19.80
2022-09-14T08:26:46.529Z,19.80
2022-09-14T08:29:15.300Z,19.90
2022-09-14T08:31:44.224Z,19.40
2022-09-14T08:34:11.799Z,19.80
2022-09-14T08:36:41.180Z,19.80
2022-09-14T08:39:11.137Z,20.00
2022-09-14T08:41:44.856Z,20.40
2022-09-14T08:44:11.652Z,19.50
2022-09-14T08:47:01.064Z,19.70
2022-09-14T08:49:43.084Z,20.80
2022-09-14T08:52:23.125Z,19.60
2022-09-14T08:54:57.574Z,19.60
2022-09-14T08:58:02.404Z,20.10
2022-09-14T09:00:51.334Z,20.30
2022-09-14T09:04:11.206Z,22.10
2022-09-14T09:07:17.704Z,20.20
2022-09-14T09:09:48.170Z,20.10
2022-09-14T09:12:45.823Z,19.80
2022-09-14T09:15:27.658Z,20.20
2022-09-14T09:18:09.131Z,19.70
2022-09-14T09:20:47.245Z,19.70
2022-09-14T09:23:19.241Z,19.50
2022-09-14T09:26:10.856Z,19.50
2022-09-14T09:28:49.436Z,19.50
2022-09-14T09:31:19.796Z,19.40
2022-09-14T09:34:07.273Z,19.40
2022-09-14T09:36:39.402Z,20.20
2022-09-14T09:39:06.970Z,19.60
2022-09-14T09:41:51.315Z,19.50
2022-09-14T09:44:18.339Z,19.40
2022-09-14T09:46:47.371Z,19.70
2022-09-14T09:49:33.498Z,19.90
2022-09-14T09:52:14.637Z,19.90
2022-09-14T09:54:52.083Z,19.70
2022-09-14T09:57:31.035Z,21.00
2022-09-14T10:00:26.333Z,20.80
2022-09-14T10:02:54.725Z,20.50
2022-09-14T10:05:29.066Z,20.30
2022-09-14T10:08:09.323Z,20.20
2022-09-14T10:10:39.156Z,20.50
2022-09-14T10:13:38.380Z,20.90
2022-09-14T10:16:18.131Z,21.20
2022-09-14T10:18:52.021Z,20.60
2022-09-14T10:21:25.800Z,20.30
2022-09-14T10:24:17.137Z,20.00
2022-09-14T10:26:44.061Z,20.20
2022-09-14T10:29:31.853Z,20.90
2022-09-14T10:32:17.727Z,21.40
2022-09-14T10:34:45.625Z,20.90
2022-09-14T10:38:07.916Z,20.80
2022-09-14T10:40:40.527Z,20.80
2022-09-14T10:43:17.061Z,21.60
2022-09-14T10:46:00.551Z,21.70
2022-09-14T10:48:54.565Z,22.30
2022-09-14T10:51:29.479Z,22.20
2022-09-14T10:54:32.761Z,22.10
2022-09-14T10:57:16.607Z,21.80
2022-09-14T11:00:12.928Z,22.10
2022-09-14T11:02:48.335Z,21.90
2022-09-14T11:05:30.995Z,21.70
2022-09-14T11:08:11.858Z,21.40
2022-09-14T11:11:10.673Z,21.30
2022-09-14T11:14:22.218Z,20.70
2022-09-14T11:17:26.890Z,20.60
2022-09-14T11:20:15.484Z,20.70
2022-09-14T11:23:04.636Z,20.70
2022-09-14T11:25:45.556Z,21.10
2022-09-14T11:28:20.383Z,22.30
2022-09-14T11:31:00.182Z,21.60
2022-09-14T11:33:38.138Z,22.00
2022-09-14T11:36:23.314Z,24.00
2022-09-14T11:38:57.907Z,22.00
2022-09-14T11:41:41.644Z,23.10
2022-09-14T11:44:21.113Z,22.10
2022-09-14T11:47:13.043Z,21.80
2022-09-14T11:50:25.440Z,21.10
2022-09-14T11:53:11.875Z,22.20
2022-09-14T11:55:45.632Z,23.00
2022-09-14T11:58:26.643Z,23.40
2022-09-14T12:01:36.901Z,23.90
2022-09-14T12:04:17.621Z,23.40
2022-09-14T12:06:49.593Z,23.30
2022-09-14T12:09:20.955Z,23.10
2022-09-14T12:12:00.770Z,22.60
2022-09-14T12:14:40.214Z,23.40
2022-09-14T12:17:38.837Z,23.40
2022-09-14T12:20:52.630Z,23.20
2022-09-14T12:23:37.762Z,23.30
2022-09-14T12:26:10.704Z,23.20
2022-09-14T12:28:37.687Z,23.80
2022-09-14T12:31:05.626Z,23.40
2022-09-14T12:33:32.703Z,23.50
2022-09-14T12:36:28.714Z,23.10
2022-09-14T12:38:55.473Z,22.90
2022-09-14T12:41:22.306Z,23.30
2022-09-14T12:43:49.257Z,23.30
2022-09-14T12:46:22.470Z,23.20
2022-09-14T12:48:49.541Z,23.10
2022-09-14T12:51:31.566Z,23.40
2022-09-14T12:54:08.872Z,23.00
2022-09-14T12:56:59.832Z,23.30
2022-09-14T13:00:11.523Z,23.20
2022-09-14T13:03:21.211Z,23.30
2022-09-14T13:05:48.201Z,23.20
2022-09-14T13:08:23.639Z,23.30
2022-09-14T13:10:52.548Z,23.00
2022-09-14T13:13:25.885Z,23.10
2022-09-14T13:15:59.301Z,22.50
2022-09-14T13:18:37.841Z,22.70
2022-09-14T13:21:21.129Z,22.40
2022-09-14T13:23:48.906Z,22.10
2022-09-14T13:26:26.120Z,21.70
2022-09-14T13:28:55.319Z,21.60
2022-09-14T13:31:36.057Z,21.30
2022-09-14T13:34:05.337Z,22.60
2022-09-14T13:36:37.198Z,21.10
2022-09-14T13:39:04.623Z,20.80
2022-09-14T13:41:32.329Z,20.80
2022-09-14T13:44:00.460Z,20.40
2022-09-14T13:46:28.517Z,20.70
2022-09-14T13:48:56.086Z,20.60
2022-09-14T13:51:27.831Z,20.40
2022-09-14T13:54:16.903Z,20.50
2022-09-14T13:56:43.829Z,20.60
2022-09-14T13:59:15.497Z,20.70
2022-09-14T14:01:58.133Z,20.40
2022-09-14T14:04:48.431Z,20.10
2022-09-14T14:07:22.767Z,20.30
2022-09-14T14:09:56.892Z,21.00
2022-09-14T14:12:39.726Z,20.50
2022-09-14T14:15:26.769Z,20.80
2022-09-14T14:17:54.743Z,20.70
2022-09-14T14:20:24.583Z,21.00
2022-09-14T14:23:10.510Z,20.90
2022-09-14T14:25:49.089Z,20.70
2022-09-14T14:28:34.843Z,20.30
2022-09-14T14:31:07.705Z,20.50
2022-09-14T14:33:36.976Z,20.50
2022-09-14T14:36:09.780Z,20.30
2022-09-14T14:38:36.968Z,21.00
2022-09-14T14:41:04.749Z,20.30
2022-09-14T14:43:32.395Z,20.30
2022-09-14T14:46:01.627Z,20.30
2022-09-14T14:48:29.565Z,20.20
2022-09-14T14:50:56.784Z,20.20
2022-09-14T14:53:25.706Z,20.30
2022-09-14T14:55:53.293Z,20.20
2022-09-14T14:58:22.120Z,20.30
2022-09-14T15:00:49.604Z,20.20
2022-09-14T15:03:18.997Z,20.10
2022-09-14T15:05:48.094Z,20.40
2022-09-14T15:08:20.035Z,20.00
2022-09-14T15:10:48.992Z,19.80
2022-09-14T15:13:15.871Z,20.00
2022-09-14T15:15:43.100Z,20.00
2022-09-14T15:18:10.430Z,20.10
2022-09-14T15:20:37.929Z,20.10
2022-09-14T15:23:06.121Z,21.50
2022-09-14T15:25:33.450Z,20.20
2022-09-14T15:28:00.955Z,20.00
2022-09-14T15:30:27.932Z,19.70
2022-09-14T15:32:55.020Z,20.00
2022-09-14T15:35:21.948Z,19.70
2022-09-14T15:37:48.852Z,19.80
2022-09-14T15:40:16.275Z,19.60
2022-09-14T15:42:43.236Z,19.90
2022-09-14T15:45:10.858Z,19.80
2022-09-14T15:47:37.855Z,20.00
2022-09-14T15:50:06.160Z,20.00
2022-09-14T15:52:38.894Z,20.20
2022-09-14T15:55:08.885Z,20.30
2022-09-14T15:57:36.972Z,20.30
2022-09-14T16:00:10.941Z,19.90
2022-09-14T16:02:41.446Z,20.20
2022-09-14T16:05:09.055Z,20.20
2022-09-14T16:07:35.988Z,20.20
2022-09-14T16:10:03.023Z,19.90
2022-09-14T16:12:30.218Z,19.90
2022-09-14T16:14:57.179Z,19.90
2022-09-14T16:17:24.125Z,19.90
2022-09-14T16:19:51.667Z,20.30
2022-09-14T16:22:19.172Z,19.80
2022-09-14T16:24:46.071Z,19.60
2022-09-14T16:27:12.998Z,20.10
2022-09-14T16:29:40.627Z,20.00
2022-09-14T16:32:07.828Z,20.10
2022-09-14T16:34:36.461Z,20.00
2022-09-14T16:37:04.304Z,19.90
2022-09-14T16:39:31.658Z,19.70
2022-09-14T16:41:59.914Z,19.70
2022-09-14T16:44:28.327Z,19.50
2022-09-14T16:46:58.261Z,19.60
2022-09-14T16:49:28.110Z,19.50
2022-09-14T16:51:56.668Z,19.70
2022-09-14T16:54:25.687Z,19.60
2022-09-14T16:56:56.959Z,19.70
2022-09-14T16:59:24.764Z,20.00
2022-09-14T17:01:54.530Z,19.60
2022-09-14T17:04:23.711Z,19.50
2022-09-14T17:06:52.109Z,19.60
2022-09-14T17:09:30.017Z,18.50
2022-09-14T17:11:58.298Z,20.50
2022-09-14T17:14:32.994Z,19.50
2022-09-14T17:17:00.678Z,19.80
2022-09-14T17:19:28.478Z,19.80
2022-09-14T17:21:55.574Z,19.30
2022-09-14T17:24:22.882Z,20.00
2022-09-14T17:26:50.089Z,19.80
2022-09-14T17:29:17.779Z,19.80
2022-09-14T17:31:45.434Z,19.50
2022-09-14T17:34:16.545Z,19.50
2022-09-14T17:36:44.072Z,19.80
2022-09-14T17:39:12.401Z,19.50
2022-09-14T17:41:41.078Z,19.60
2022-09-14T17:44:12.388Z,19.50
2022-09-14T17:46:48.111Z,19.80
2022-09-14T17:49:18.054Z,19.50
2022-09-14T17:51:45.356Z,19.30
2022-09-14T17:54:12.805Z,19.60
2022-09-14T17:56:39.873Z,19.50
2022-09-14T17:59:12.710Z,19.60
2022-09-14T18:01:40.240Z,17.80
2022-09-14T18:04:12.414Z,19.20
2022-09-14T18:06:44.290Z,19.00
2022-09-14T18:09:19.012Z,19.50
2022-09-14T18:11:47.009Z,19.90
2022-09-14T18:14:14.921Z,19.50
2022-09-14T18:16:43.171Z,19.50
2022-09-14T18:19:10.517Z,19.70
2022-09-14T18:21:37.781Z,19.40
2022-09-14T18:24:05.281Z,19.90
2022-09-14T18:26:32.404Z,19.10
2022-09-14T18:28:59.433Z,19.20
2022-09-14T18:31:27.209Z,19.20
2022-09-14T18:33:59.009Z,19.00
2022-09-14T18:36:29.065Z,18.90
2022-09-14T18:38:57.818Z,18.90
2022-09-14T18:41:24.850Z,19.20
2022-09-14T18:43:53.299Z,18.50
2022-09-14T18:46:23.418Z,19.20
2022-09-14T18:48:57.083Z,18.60
2022-09-14T18:53:57.819Z,19.00
2022-09-14T18:56:24.999Z,18.80
2022-09-14T18:58:52.076Z,19.80
2022-09-14T19:01:19.456Z,18.40
2022-09-14T19:03:46.437Z,18.80
2022-09-14T19:06:16.206Z,19.00
2022-09-14T19:08:44.195Z,19.00
2022-09-14T19:11:17.786Z,18.60
2022-09-14T19:13:46.052Z,19.00
2022-09-14T19:16:18.780Z,18.40
2022-09-14T19:18:49.503Z,18.90
2022-09-14T19:21:24.027Z,19.10
2022-09-14T19:24:07.121Z,20.20
2022-09-14T19:26:44.568Z,18.80
2022-09-14T19:29:20.205Z,19.50
2022-09-14T19:31:51.399Z,19.50
2022-09-14T19:34:20.432Z,19.20
2022-09-14T19:36:48.026Z,19.00
2022-09-14T19:39:15.286Z,19.30
2022-09-14T19:41:42.548Z,19.00
2022-09-14T19:44:11.395Z,18.80
2022-09-14T19:46:39.827Z,18.90
2022-09-14T19:49:36.413Z,19.10
2022-09-14T19:52:03.682Z,19.20
2022-09-14T19:54:30.727Z,18.90
2022-09-14T19:56:57.677Z,18.90
2022-09-14T19:59:25.016Z,19.00
2022-09-14T20:01:52.387Z,21.60
2022-09-14T20:04:19.719Z,18.60
2022-09-14T20:06:47.661Z,18.30
2022-09-14T20:09:23.340Z,19.50
2022-09-14T20:11:52.533Z,18.60
2022-09-14T20:14:23.648Z,19.00
2022-09-14T20:16:54.568Z,18.90
2022-09-14T20:19:25.893Z,18.40
2022-09-14T20:21:53.827Z,18.70
2022-09-14T20:24:26.375Z,19.10
2022-09-14T20:26:59.615Z,18.70
2022-09-14T20:29:30.459Z,18.60
2022-09-14T20:31:58.698Z,18.50
2022-09-14T20:34:26.537Z,18.80
2022-09-14T20:36:54.919Z,18.80
2022-09-14T20:39:23.696Z,18.60
2022-09-14T20:41:50.668Z,18.80
2022-09-14T20:44:22.132Z,18.70
2022-09-14T20:46:49.784Z,18.40
2022-09-14T20:49:22.020Z,18.70
2022-09-14T20:51:49.134Z,18.70
2022-09-14T20:54:17.989Z,18.80
2022-09-14T20:56:46.258Z,18.40
2022-09-14T20:59:16.491Z,18.60
2022-09-14T21:01:46.469Z,18.40
2022-09-14T21:04:22.538Z,18.70
2022-09-14T21:06:55.156Z,18.80
2022-09-14T21:09:25.008Z,18.60
2022-09-14T21:11:52.798Z,18.90
2022-09-14T21:14:21.041Z,19.20
2022-09-14T21:16:52.668Z,18.70
2022-09-14T21:19:27.855Z,18.50
2022-09-14T21:21:55.637Z,18.70
2022-09-14T21:24:23.784Z,18.30
2022-09-14T21:26:51.106Z,18.70
2022-09-14T21:29:23.330Z,18.70
2022-09-14T21:31:50.862Z,18.70
2022-09-14T21:34:18.307Z,18.90
2022-09-14T21:36:49.133Z,18.90
2022-09-14T21:39:21.585Z,20.00
2022-09-14T21:41:51.432Z,18.90
2022-09-14T21:44:21.561Z,19.10
2022-09-14T21:46:48.614Z,19.00
2022-09-14T21:49:21.819Z,19.10
2022-09-14T21:51:49.690Z,18.90
2022-09-14T21:54:16.967Z,18.90
2022-09-14T21:56:46.274Z,18.90
2022-09-14T21:59:19.834Z,19.00
2022-09-14T22:01:47.919Z,18.40
2022-09-14T22:04:20.647Z,18.90
2022-09-14T22:06:48.077Z,19.00
2022-09-14T22:09:17.189Z,18.80
2022-09-14T22:11:44.336Z,18.20
2022-09-14T22:14:14.728Z,18.90
2022-09-14T22:16:42.088Z,18.90
2022-09-14T22:19:17.248Z,18.70
2022-09-14T22:21:44.921Z,19.50
2022-09-14T22:24:17.267Z,18.80
2022-09-14T22:26:45.152Z,18.80
2022-09-14T22:29:13.531Z,18.80
2022-09-14T22:31:42.512Z,18.70
2022-09-14T22:34:09.767Z,18.50
2022-09-14T22:36:37.365Z,18.30
2022-09-14T22:39:05.359Z,17.80
2022-09-14T22:41:32.594Z,18.50
2022-09-14T22:43:59.508Z,18.70
2022-09-14T22:46:26.588Z,18.50
2022-09-14T22:48:53.734Z,18.70
2022-09-14T22:51:24.956Z,18.50
2022-09-14T22:53:52.759Z,18.50
2022-09-14T22:56:27.931Z,18.60
2022-09-14T22:58:55.480Z,18.30
2022-09-14T23:01:30.428Z,18.50
2022-09-14T23:04:01.330Z,18.70
2022-09-14T23:06:35.472Z,19.60
2022-09-14T23:09:02.847Z,18.60
2022-09-14T23:11:29.927Z,18.30
2022-09-14T23:13:59.001Z,18.60
2022-09-14T23:16:29.330Z,18.50
2022-09-14T23:19:04.414Z,18.70
2022-09-14T23:21:31.833Z,18.60
2022-09-14T23:24:03.987Z,19.00
2022-09-14T23:26:31.464Z,18.40
2022-09-14T23:29:01.901Z,18.40
2022-09-14T23:31:30.766Z,18.40
2022-09-14T23:34:00.269Z,18.40
2022-09-14T23:36:27.581Z,18.20
2022-09-14T23:38:54.648Z,18.20
2022-09-14T23:41:24.084Z,18.40
2022-09-14T23:43:51.770Z,18.30
2022-09-14T23:46:19.380Z,18.40
2022-09-14T23:48:46.949Z,18.50
2022-09-14T23:51:14.107Z,18.30
2022-09-14T23:53:42.675Z,18.20
2022-09-14T23:56:10.527Z,18.20
2022-09-14T23:58:38.205Z,18.00
